Shoal Creek, Alabama
Current Conditions -  °F | °C
As of 9:53 AM on Friday 24 Oct 2014 (Local Time) from KBHM Reporting Station
Scattered Clouds Scattered Clouds  
Wind Chill: 59°   Ceiling: Unl
Heat Index: 59°   Visibility: 10mi
Dew Point: 47°   Wind: 0mph
Humidity: 64%   Direction: NA
Pressure: 30.14"   Gusts: NA
Location:  33.3752°N, 86.7086°W
Report Text: KBHM 241453Z 00000KT 10SM FEW150 SCT250 15/08 A3014 RMK AO2 SLP202 T01500083 51010
Loading
Personal Weather Stations






























Interactive Weather Map
Tropical Storm Tracking
New forecast layout! Learn more

10-Day Weather Forecast

Advertisements
Track Severe Weather on mobile